createdAt,value
2023-02-09T00:02:17.326Z,0.00
2023-02-09T00:04:45.461Z,0.00
2023-02-09T00:07:13.085Z,0.00
2023-02-09T00:09:41.249Z,0.00
2023-02-09T00:12:28.682Z,0.00
2023-02-09T00:14:56.849Z,0.00
2023-02-09T00:17:24.457Z,0.00
2023-02-09T00:19:55.292Z,0.10
2023-02-09T00:22:22.940Z,1.15
2023-02-09T00:24:51.002Z,0.25
2023-02-09T00:27:18.678Z,0.10
2023-02-09T00:29:46.582Z,0.40
2023-02-09T00:32:17.457Z,0.73
2023-02-09T00:34:45.965Z,0.00
2023-02-09T00:37:13.596Z,0.00
2023-02-09T00:39:41.793Z,0.00
2023-02-09T00:42:11.451Z,0.00
2023-02-09T00:44:40.668Z,0.08
2023-02-09T00:47:09.299Z,0.00
2023-02-09T00:49:37.614Z,0.00
2023-02-09T00:52:05.301Z,0.00
2023-02-09T00:54:33.277Z,0.00
2023-02-09T00:57:05.530Z,0.00
2023-02-09T00:59:35.742Z,0.00
2023-02-09T01:02:03.746Z,0.00
2023-02-09T01:04:31.893Z,0.00
2023-02-09T01:06:59.633Z,0.00
2023-02-09T01:09:27.593Z,0.00
2023-02-09T01:11:55.222Z,0.00
2023-02-09T01:14:23.235Z,0.00
2023-02-09T01:16:51.215Z,0.00
2023-02-09T01:19:19.506Z,2.35
2023-02-09T01:21:49.189Z,0.00
2023-02-09T01:24:17.183Z,0.00
2023-02-09T01:26:44.850Z,0.00
2023-02-09T01:29:15.813Z,0.00
2023-02-09T01:31:44.163Z,0.03
2023-02-09T01:34:18.665Z,0.90
2023-02-09T01:36:49.501Z,1.75
2023-02-09T01:39:17.442Z,0.00
2023-02-09T01:41:45.464Z,0.00
2023-02-09T01:44:16.453Z,0.30
2023-02-09T01:46:47.068Z,1.75
2023-02-09T01:49:22.034Z,0.00
2023-02-09T01:51:56.242Z,2.85
2023-02-09T01:54:43.759Z,3.22
2023-02-09T01:57:21.132Z,2.90
2023-02-09T01:59:54.775Z,2.65
2023-02-09T02:02:23.334Z,0.35
2023-02-09T02:04:52.245Z,4.40
2023-02-09T02:07:42.306Z,0.00
2023-02-09T02:10:10.728Z,0.90
2023-02-09T02:12:39.717Z,2.25
2023-02-09T02:15:09.722Z,1.50
2023-02-09T02:18:00.397Z,0.00
2023-02-09T02:20:49.928Z,0.00
2023-02-09T02:23:33.728Z,5.53
2023-02-09T02:26:33.710Z,6.10
2023-02-09T02:29:10.598Z,0.00
2023-02-09T02:32:08.183Z,0.45
2023-02-09T02:34:46.497Z,2.65
2023-02-09T02:37:48.888Z,0.00
2023-02-09T02:40:28.553Z,0.00
2023-02-09T02:42:59.538Z,0.00
2023-02-09T02:45:54.978Z,0.00
2023-02-09T02:49:00.883Z,0.00
2023-02-09T02:51:39.157Z,0.00
2023-02-09T02:54:20.054Z,3.47
2023-02-09T02:56:56.494Z,0.00
2023-02-09T02:59:37.951Z,0.00
2023-02-09T03:02:08.797Z,0.00
2023-02-09T03:04:38.517Z,2.72
2023-02-09T03:07:07.928Z,0.00
2023-02-09T03:09:35.928Z,0.00
2023-02-09T03:12:18.598Z,0.05
2023-02-09T03:15:26.761Z,0.00
2023-02-09T03:18:21.485Z,0.00
2023-02-09T03:21:01.605Z,0.00
2023-02-09T03:23:47.309Z,0.00
2023-02-09T03:26:20.327Z,0.00
2023-02-09T03:28:52.599Z,0.00
2023-02-09T03:31:21.225Z,0.00
2023-02-09T03:33:50.345Z,0.00
2023-02-09T03:36:20.695Z,0.00
2023-02-09T03:38:48.363Z,0.00
2023-02-09T03:41:16.297Z,0.00
2023-02-09T03:44:02.629Z,0.00
2023-02-09T03:46:30.612Z,0.00
2023-02-09T03:48:58.354Z,0.00
2023-02-09T03:51:26.316Z,0.75
2023-02-09T03:53:54.055Z,0.40
2023-02-09T03:56:25.097Z,0.20
2023-02-09T03:58:53.065Z,0.00
2023-02-09T04:01:21.049Z,0.00
2023-02-09T04:03:48.930Z,0.20
2023-02-09T04:06:16.867Z,0.30
2023-02-09T04:08:44.456Z,0.00
2023-02-09T04:11:12.466Z,0.00
2023-02-09T04:13:40.137Z,0.05
2023-02-09T04:16:08.220Z,0.00
2023-02-09T04:18:35.901Z,0.10
2023-02-09T04:21:03.954Z,0.43
2023-02-09T04:23:31.748Z,0.57
2023-02-09T04:25:59.745Z,0.05
2023-02-09T04:28:27.537Z,0.15
2023-02-09T04:30:56.504Z,0.25
2023-02-09T04:33:25.399Z,0.00
2023-02-09T04:35:53.445Z,0.00
2023-02-09T04:38:22.362Z,0.00
2023-02-09T04:40:52.334Z,0.00
2023-02-09T04:43:20.433Z,0.00
2023-02-09T04:45:48.576Z,0.00
2023-02-09T04:48:18.451Z,0.00
2023-02-09T04:50:47.088Z,0.00
2023-02-09T04:53:15.637Z,0.00
2023-02-09T04:55:45.996Z,0.00
2023-02-09T04:58:34.843Z,0.10
2023-02-09T05:01:03.650Z,0.00
2023-02-09T05:03:32.194Z,2.58
2023-02-09T05:06:05.676Z,0.00
2023-02-09T05:08:33.585Z,0.00
2023-02-09T05:11:01.865Z,0.00
2023-02-09T05:13:29.852Z,0.00
2023-02-09T05:15:57.911Z,0.63
2023-02-09T05:18:26.995Z,0.00
2023-02-09T05:20:54.966Z,1.48
2023-02-09T05:23:22.567Z,0.08
2023-02-09T05:25:50.710Z,0.00
2023-02-09T05:28:18.431Z,0.45
2023-02-09T05:30:49.199Z,0.00
2023-02-09T05:33:16.978Z,0.88
2023-02-09T05:35:44.975Z,0.52
2023-02-09T05:38:12.563Z,0.00
2023-02-09T05:40:40.551Z,0.00
2023-02-09T05:43:08.236Z,0.73
2023-02-09T05:45:36.192Z,0.00
2023-02-09T05:48:04.792Z,0.00
2023-02-09T05:50:32.849Z,0.00
2023-02-09T05:53:07.747Z,0.00
2023-02-09T05:55:35.814Z,0.00
2023-02-09T05:58:03.735Z,0.00
2023-02-09T06:00:32.112Z,0.00
2023-02-09T06:02:59.843Z,0.00
2023-02-09T06:05:30.254Z,0.00
2023-02-09T06:07:58.414Z,0.00
2023-02-09T06:10:26.423Z,0.00
2023-02-09T06:12:55.323Z,0.00
2023-02-09T06:15:23.420Z,0.00
2023-02-09T06:17:51.028Z,0.00
2023-02-09T06:20:19.156Z,0.00
2023-02-09T06:22:46.888Z,0.00
2023-02-09T06:25:14.963Z,0.00
2023-02-09T06:27:42.563Z,0.00
2023-02-09T06:30:11.503Z,0.00
2023-02-09T06:32:39.221Z,0.00
2023-02-09T06:35:07.217Z,0.00
2023-02-09T06:37:34.995Z,0.00
2023-02-09T06:40:03.283Z,0.00
2023-02-09T06:42:44.138Z,0.00
2023-02-09T06:45:16.535Z,0.08
2023-02-09T06:47:45.563Z,0.00
2023-02-09T06:50:18.096Z,0.00
2023-02-09T06:52:46.106Z,0.00
2023-02-09T06:55:14.474Z,0.00
2023-02-09T06:57:42.198Z,0.00
2023-02-09T07:00:12.028Z,0.00
2023-02-09T07:02:43.152Z,0.00
2023-02-09T07:05:15.545Z,0.00
2023-02-09T07:07:44.305Z,0.00
2023-02-09T07:10:15.736Z,0.00
2023-02-09T07:12:46.595Z,0.00
2023-02-09T07:15:15.137Z,0.00
2023-02-09T07:17:42.875Z,0.03
2023-02-09T07:20:11.474Z,0.00
2023-02-09T07:22:39.112Z,0.00
2023-02-09T07:25:07.655Z,0.00
2023-02-09T07:27:35.537Z,0.00
2023-02-09T07:30:03.664Z,1.88
2023-02-09T07:32:34.200Z,0.00
2023-02-09T07:35:02.238Z,0.00
2023-02-09T07:37:30.815Z,0.00
2023-02-09T07:39:59.095Z,0.00
2023-02-09T07:42:26.867Z,0.40
2023-02-09T07:45:01.616Z,0.52
2023-02-09T07:47:29.414Z,0.00
2023-02-09T07:49:57.581Z,0.00
2023-02-09T07:52:25.388Z,1.00
2023-02-09T07:54:53.540Z,0.05
2023-02-09T07:57:21.189Z,3.33
2023-02-09T07:59:51.667Z,0.40
2023-02-09T08:02:34.269Z,0.00
2023-02-09T08:05:03.304Z,0.85
2023-02-09T08:07:32.104Z,1.30
2023-02-09T08:10:00.174Z,0.00
2023-02-09T08:12:49.368Z,0.25
2023-02-09T08:15:22.955Z,0.43
2023-02-09T08:20:26.431Z,0.13
2023-02-09T08:22:56.186Z,0.00
2023-02-09T08:25:25.705Z,1.67
2023-02-09T08:27:54.529Z,1.13
2023-02-09T08:30:22.783Z,0.88
2023-02-09T08:32:50.978Z,2.38
2023-02-09T08:35:19.041Z,2.63
2023-02-09T08:37:47.004Z,2.90
2023-02-09T08:40:16.360Z,1.85
2023-02-09T08:42:44.295Z,3.28
2023-02-09T08:45:14.214Z,4.50
2023-02-09T08:47:41.907Z,5.18
2023-02-09T08:50:11.129Z,5.95
2023-02-09T08:52:38.949Z,9.35
2023-02-09T08:55:08.404Z,5.95
2023-02-09T08:57:43.853Z,5.03
2023-02-09T09:00:13.465Z,4.45
2023-02-09T09:02:41.277Z,6.93
2023-02-09T09:05:10.759Z,5.60
2023-02-09T09:07:38.513Z,9.82
2023-02-09T09:10:09.820Z,11.68
2023-02-09T09:12:38.056Z,9.95
2023-02-09T09:15:08.810Z,9.73
2023-02-09T09:20:04.566Z,12.73
2023-02-09T09:22:32.310Z,10.85
2023-02-09T09:25:00.327Z,5.47
2023-02-09T09:27:29.543Z,3.25
2023-02-09T09:29:57.571Z,3.00
2023-02-09T09:32:25.775Z,2.55
2023-02-09T09:34:56.281Z,2.65
2023-02-09T09:37:24.910Z,1.45
2023-02-09T09:39:53.574Z,1.48
2023-02-09T09:42:34.847Z,2.10
2023-02-09T09:45:05.598Z,2.88
2023-02-09T09:47:42.650Z,3.38
2023-02-09T09:50:26.311Z,2.95
2023-02-09T09:53:01.465Z,2.60
2023-02-09T09:55:31.295Z,1.48
2023-02-09T09:58:02.961Z,2.63
2023-02-09T10:00:40.653Z,4.88
2023-02-09T10:03:20.849Z,5.32
2023-02-09T10:05:51.618Z,4.30
2023-02-09T10:08:40.662Z,5.47
2023-02-09T10:11:17.503Z,4.93
2023-02-09T10:14:09.560Z,3.75
2023-02-09T10:16:40.577Z,3.53
2023-02-09T10:19:23.207Z,4.47
2023-02-09T10:21:51.444Z,2.60
2023-02-09T10:24:34.454Z,3.42
2023-02-09T10:27:06.188Z,3.58
2023-02-09T10:29:35.646Z,3.83
2023-02-09T10:32:09.763Z,5.65
2023-02-09T10:34:43.166Z,4.35
2023-02-09T10:37:33.792Z,3.58
2023-02-09T10:40:24.650Z,3.38
2023-02-09T10:43:01.284Z,4.30
2023-02-09T10:45:32.948Z,4.07
2023-02-09T10:48:21.373Z,3.08
2023-02-09T10:51:07.688Z,2.63
2023-02-09T10:53:40.347Z,2.83
2023-02-09T10:56:21.506Z,2.92
2023-02-09T10:59:04.722Z,2.63
2023-02-09T11:01:43.826Z,3.20
2023-02-09T11:04:21.346Z,3.47
2023-02-09T11:07:01.259Z,1.77
2023-02-09T11:09:43.532Z,3.92
2023-02-09T11:12:14.778Z,3.22
2023-02-09T11:14:43.793Z,2.70
2023-02-09T11:17:37.493Z,2.78
2023-02-09T11:20:18.214Z,2.85
2023-02-09T11:22:51.476Z,5.45
2023-02-09T11:25:41.589Z,5.35
2023-02-09T11:28:34.426Z,5.18
2023-02-09T11:31:33.242Z,5.10
2023-02-09T11:34:06.544Z,3.00
2023-02-09T11:37:24.286Z,4.97
2023-02-09T11:40:16.523Z,6.05
2023-02-09T11:42:51.049Z,7.18
2023-02-09T11:45:55.059Z,4.10
2023-02-09T11:48:30.779Z,3.15
2023-02-09T11:51:07.485Z,2.67
2023-02-09T11:54:04.919Z,3.45
2023-02-09T11:56:39.498Z,4.30
2023-02-09T11:59:17.887Z,3.72
2023-02-09T12:02:16.619Z,4.93
2023-02-09T12:04:51.442Z,2.65
2023-02-09T12:07:40.946Z,3.95
2023-02-09T12:10:18.164Z,3.58
2023-02-09T12:15:36.260Z,2.85
2023-02-09T12:18:11.296Z,3.28
2023-02-09T12:20:39.294Z,2.90
2023-02-09T12:23:35.632Z,2.67
2023-02-09T12:26:12.710Z,3.67
2023-02-09T12:28:47.561Z,2.42
2023-02-09T12:31:23.862Z,2.47
2023-02-09T12:34:13.071Z,2.50
2023-02-09T12:37:18.237Z,4.07
2023-02-09T12:40:07.867Z,3.40
2023-02-09T12:42:43.972Z,2.50
2023-02-09T12:45:42.246Z,3.20
2023-02-09T12:48:10.244Z,2.63
2023-02-09T12:50:44.026Z,2.10
2023-02-09T12:53:24.207Z,2.85
2023-02-09T12:56:24.376Z,2.08
2023-02-09T12:58:52.331Z,2.50
2023-02-09T13:01:20.370Z,2.90
2023-02-09T13:03:58.896Z,4.07
2023-02-09T13:06:46.816Z,2.00
2023-02-09T13:09:23.120Z,1.08
2023-02-09T13:11:58.594Z,1.58
2023-02-09T13:14:26.811Z,2.28
2023-02-09T13:17:17.594Z,2.25
2023-02-09T13:20:04.489Z,2.92
2023-02-09T13:23:14.350Z,1.92
2023-02-09T13:25:44.433Z,4.25
2023-02-09T13:28:22.975Z,2.08
2023-02-09T13:30:51.065Z,2.33
2023-02-09T13:33:51.307Z,2.65
2023-02-09T13:36:41.110Z,1.67
2023-02-09T13:39:18.099Z,3.40
2023-02-09T13:41:48.084Z,2.42
2023-02-09T13:44:26.151Z,3.80
2023-02-09T13:47:01.172Z,2.00
2023-02-09T13:49:30.405Z,1.70
2023-02-09T13:52:26.942Z,1.17
2023-02-09T13:54:55.004Z,2.22
2023-02-09T13:57:33.940Z,1.55
2023-02-09T14:00:27.062Z,2.08
2023-02-09T14:03:02.286Z,1.95
2023-02-09T14:06:00.132Z,1.25
2023-02-09T14:08:30.034Z,2.08
2023-02-09T14:11:41.410Z,2.47
2023-02-09T14:14:22.557Z,2.10
2023-02-09T14:17:25.335Z,2.13
2023-02-09T14:19:56.147Z,1.05
2023-02-09T14:22:36.516Z,2.10
2023-02-09T14:25:13.843Z,2.28
2023-02-09T14:27:45.990Z,0.80
2023-02-09T14:30:23.611Z,3.17
2023-02-09T14:32:56.149Z,2.00
2023-02-09T14:35:31.009Z,2.22
2023-02-09T14:38:00.840Z,1.20
2023-02-09T14:40:30.057Z,1.10
2023-02-09T14:43:12.693Z,1.83
2023-02-09T14:45:46.712Z,1.40
2023-02-09T14:48:22.905Z,1.10
2023-02-09T14:50:55.981Z,0.82
2023-02-09T14:53:27.347Z,1.10
2023-02-09T14:55:58.603Z,1.70
2023-02-09T14:58:31.449Z,2.75
2023-02-09T15:01:02.085Z,1.67
2023-02-09T15:03:29.962Z,2.00
2023-02-09T15:06:04.491Z,0.68
2023-02-09T15:08:39.178Z,2.55
2023-02-09T15:11:29.718Z,0.30
2023-02-09T15:14:01.844Z,1.42
2023-02-09T15:16:31.145Z,3.78
2023-02-09T15:18:59.633Z,4.15
2023-02-09T15:21:27.668Z,9.70
2023-02-09T15:23:55.815Z,1.33
2023-02-09T15:26:27.045Z,2.72
2023-02-09T15:28:54.849Z,3.60
2023-02-09T15:31:23.071Z,2.50
2023-02-09T15:33:51.169Z,2.30
2023-02-09T15:36:21.249Z,1.38
2023-02-09T15:38:49.245Z,1.48
2023-02-09T15:41:36.362Z,1.05
2023-02-09T15:44:39.629Z,2.08
2023-02-09T15:47:26.365Z,1.92
2023-02-09T15:49:55.292Z,5.35
2023-02-09T15:52:23.691Z,10.40
2023-02-09T15:54:54.057Z,6.15
2023-02-09T15:57:25.479Z,4.40
2023-02-09T15:59:55.438Z,2.83
2023-02-09T16:02:25.507Z,1.73
2023-02-09T16:04:54.995Z,3.28
2023-02-09T16:07:26.576Z,1.15
2023-02-09T16:09:55.025Z,1.48
2023-02-09T16:12:23.758Z,2.63
2023-02-09T16:14:53.301Z,2.75
2023-02-09T16:17:22.171Z,2.25
2023-02-09T16:19:52.449Z,1.75
2023-02-09T16:22:25.443Z,2.20
2023-02-09T16:24:54.121Z,1.13
2023-02-09T16:27:28.429Z,0.57
2023-02-09T16:29:59.983Z,0.00
2023-02-09T16:32:30.226Z,0.45
2023-02-09T16:35:16.251Z,0.00
2023-02-09T16:37:48.921Z,2.17
2023-02-09T16:40:32.946Z,0.50
2023-02-09T16:43:05.094Z,0.00
2023-02-09T16:45:37.652Z,0.00
2023-02-09T16:48:20.433Z,0.00
2023-02-09T16:50:53.474Z,0.15
2023-02-09T16:53:38.119Z,0.60
2023-02-09T16:56:11.824Z,2.10
2023-02-09T16:58:40.364Z,0.00
2023-02-09T17:01:20.495Z,0.30
2023-02-09T17:03:54.584Z,0.00
2023-02-09T17:06:28.495Z,1.08
2023-02-09T17:08:59.943Z,1.27
2023-02-09T17:11:29.485Z,2.65
2023-02-09T17:13:58.292Z,2.17
2023-02-09T17:16:34.077Z,1.40
2023-02-09T17:19:04.585Z,0.98
2023-02-09T17:21:40.593Z,1.08
2023-02-09T17:24:17.154Z,1.58
2023-02-09T17:26:46.204Z,1.08
2023-02-09T17:29:14.537Z,0.13
2023-02-09T17:31:53.119Z,0.00
2023-02-09T17:34:27.430Z,0.00
2023-02-09T17:36:58.392Z,0.50
2023-02-09T17:39:28.444Z,0.90
2023-02-09T17:41:59.529Z,0.55
2023-02-09T17:44:45.187Z,0.10
2023-02-09T17:47:17.360Z,1.98
2023-02-09T17:49:46.922Z,0.00
2023-02-09T17:52:21.633Z,1.73
2023-02-09T17:54:51.655Z,0.60
2023-02-09T17:57:21.641Z,2.88
2023-02-09T17:59:50.564Z,1.23
2023-02-09T18:02:21.329Z,3.70
2023-02-09T18:04:51.444Z,2.20
2023-02-09T18:07:22.589Z,0.20
2023-02-09T18:09:53.350Z,0.32
2023-02-09T18:12:27.128Z,2.25
2023-02-09T18:14:56.684Z,3.53
2023-02-09T18:17:26.191Z,2.50
2023-02-09T18:19:57.498Z,4.05
2023-02-09T18:22:28.295Z,1.48
2023-02-09T18:25:00.532Z,3.72
2023-02-09T18:27:31.885Z,4.05
2023-02-09T18:30:04.392Z,4.13
2023-02-09T18:32:36.388Z,3.33
2023-02-09T18:35:06.261Z,5.43
2023-02-09T18:37:36.059Z,5.20
2023-02-09T18:40:05.378Z,5.78
2023-02-09T18:42:36.595Z,4.53
2023-02-09T18:45:09.049Z,1.80
2023-02-09T18:47:38.430Z,5.65
2023-02-09T18:50:12.228Z,5.07
2023-02-09T18:53:03.266Z,3.40
2023-02-09T18:55:35.933Z,4.22
2023-02-09T18:58:09.655Z,3.58
2023-02-09T19:03:08.459Z,4.63
2023-02-09T19:05:38.067Z,5.88
2023-02-09T19:08:08.747Z,2.45
2023-02-09T19:10:43.467Z,10.48
2023-02-09T19:13:13.265Z,6.07
2023-02-09T19:15:43.485Z,5.40
2023-02-09T19:18:19.380Z,5.90
2023-02-09T19:20:50.677Z,3.78
2023-02-09T19:23:20.441Z,2.28
2023-02-09T19:25:51.568Z,2.83
2023-02-09T19:28:21.370Z,2.38
2023-02-09T19:30:52.207Z,1.20
2023-02-09T19:33:28.911Z,2.00
2023-02-09T19:36:02.448Z,3.97
2023-02-09T19:38:33.104Z,1.35
2023-02-09T19:41:12.743Z,2.20
2023-02-09T19:43:42.496Z,3.85
2023-02-09T19:46:13.398Z,3.38
2023-02-09T19:48:42.950Z,2.22
2023-02-09T19:51:14.862Z,1.77
2023-02-09T19:53:45.763Z,1.17
2023-02-09T19:56:21.461Z,2.42
2023-02-09T19:58:51.851Z,3.83
2023-02-09T20:01:22.813Z,4.18
2023-02-09T20:03:53.229Z,5.15
2023-02-09T20:06:22.396Z,1.38
2023-02-09T20:08:51.910Z,6.22
2023-02-09T20:11:22.511Z,8.15
2023-02-09T20:13:54.116Z,5.32
2023-02-09T20:16:26.558Z,6.25
2023-02-09T20:18:57.804Z,6.00
2023-02-09T20:21:28.135Z,4.30
2023-02-09T20:23:59.403Z,3.67
2023-02-09T20:26:33.736Z,4.65
2023-02-09T20:29:08.376Z,6.80
2023-02-09T20:31:39.239Z,6.47
2023-02-09T20:34:15.413Z,3.30
2023-02-09T20:36:48.858Z,2.95
2023-02-09T20:39:19.815Z,3.08
2023-02-09T20:42:13.160Z,2.90
2023-02-09T20:45:02.914Z,4.70
2023-02-09T20:47:31.913Z,1.60
2023-02-09T20:50:05.346Z,1.40
2023-02-09T20:52:35.495Z,1.90
2023-02-09T20:55:04.696Z,1.10
2023-02-09T20:57:37.108Z,3.10
2023-02-09T21:00:10.536Z,1.10
2023-02-09T21:02:39.915Z,2.25
2023-02-09T21:05:11.086Z,2.20
2023-02-09T21:07:40.007Z,0.85
2023-02-09T21:10:10.881Z,1.65
2023-02-09T21:12:40.624Z,1.65
2023-02-09T21:15:10.456Z,1.77
2023-02-09T21:17:49.029Z,3.80
2023-02-09T21:20:18.178Z,1.85
2023-02-09T21:22:47.684Z,3.63
2023-02-09T21:25:19.915Z,1.35
2023-02-09T21:27:48.627Z,1.45
2023-02-09T21:30:17.252Z,2.45
2023-02-09T21:32:45.388Z,3.05
2023-02-09T21:35:14.620Z,0.77
2023-02-09T21:37:46.511Z,0.08
2023-02-09T21:40:16.589Z,1.88
2023-02-09T21:42:44.834Z,2.10
2023-02-09T21:45:13.823Z,1.20
2023-02-09T21:47:42.409Z,2.33
2023-02-09T21:50:16.449Z,2.25
2023-02-09T21:52:44.323Z,2.72
2023-02-09T21:55:13.269Z,3.65
2023-02-09T21:57:41.107Z,2.72
2023-02-09T22:00:11.528Z,2.10
2023-02-09T22:02:39.635Z,3.58
2023-02-09T22:05:08.459Z,4.80
2023-02-09T22:07:36.617Z,1.58
2023-02-09T22:10:06.070Z,0.40
2023-02-09T22:12:34.435Z,1.55
2023-02-09T22:15:02.709Z,3.50
2023-02-09T22:17:30.452Z,2.05
2023-02-09T22:19:58.503Z,0.80
2023-02-09T22:22:26.146Z,2.55
2023-02-09T22:24:57.636Z,1.88
2023-02-09T22:27:26.916Z,2.15
2023-02-09T22:29:54.944Z,3.00
2023-02-09T22:32:22.678Z,1.48
2023-02-09T22:34:50.591Z,1.33
2023-02-09T22:37:18.279Z,3.15
2023-02-09T22:39:47.286Z,2.10
2023-02-09T22:42:14.871Z,0.82
2023-02-09T22:44:43.013Z,3.03
2023-02-09T22:47:10.697Z,2.45
2023-02-09T22:49:38.730Z,2.45
2023-02-09T22:52:06.644Z,4.35
2023-02-09T22:54:34.723Z,0.30
2023-02-09T22:57:02.450Z,4.13
2023-02-09T22:59:30.423Z,4.05
2023-02-09T23:01:58.145Z,1.33
2023-02-09T23:04:26.135Z,0.75
2023-02-09T23:06:53.839Z,1.50
2023-02-09T23:09:21.812Z,0.93
2023-02-09T23:11:49.523Z,2.15
2023-02-09T23:14:17.980Z,4.40
2023-02-09T23:16:46.178Z,0.80
2023-02-09T23:19:17.276Z,3.83
2023-02-09T23:21:47.771Z,2.05
2023-02-09T23:24:18.528Z,1.70
2023-02-09T23:26:46.154Z,9.52
2023-02-09T23:29:16.199Z,2.55
2023-02-09T23:31:44.998Z,2.28
2023-02-09T23:34:20.337Z,4.82
2023-02-09T23:36:48.327Z,1.80
2023-02-09T23:39:19.183Z,7.85
2023-02-09T23:41:47.068Z,3.30
2023-02-09T23:44:15.267Z,4.35
2023-02-09T23:46:43.266Z,5.07
2023-02-09T23:49:11.735Z,4.25
2023-02-09T23:51:39.480Z,4.35
2023-02-09T23:54:07.794Z,1.60
2023-02-09T23:56:38.175Z,3.40
2023-02-09T23:59:08.707Z,4.07
